createdAt,value
2022-11-10T00:03:02.652Z,100827.43
2022-11-10T00:05:47.909Z,100824.86
2022-11-10T00:08:33.262Z,100830.08
2022-11-10T00:11:18.712Z,100827.64
2022-11-10T00:14:22.643Z,100831.35
2022-11-10T00:17:10.482Z,100830.31
2022-11-10T00:19:56.165Z,100835.77
2022-11-10T00:22:41.441Z,100837.38
2022-11-10T00:25:27.029Z,100836.58
2022-11-10T00:28:12.507Z,100837.02
2022-11-10T00:30:58.598Z,100840.65
2022-11-10T00:33:43.840Z,100842.54
2022-11-10T00:36:29.180Z,100843.38
2022-11-10T00:39:14.224Z,100848.86
2022-11-10T00:41:59.700Z,100849.95
2022-11-10T00:44:46.312Z,100849.27
2022-11-10T00:47:31.470Z,100851.88
2022-11-10T00:50:18.089Z,100854.83
2022-11-10T00:53:03.261Z,100855.70
2022-11-10T00:55:49.357Z,100854.90
2022-11-10T00:58:35.041Z,100852.28
2022-11-10T01:01:23.829Z,100848.83
2022-11-10T01:04:09.310Z,100854.10
2022-11-10T01:06:54.277Z,100855.77
2022-11-10T01:09:39.421Z,100858.50
2022-11-10T01:12:29.205Z,100855.97
2022-11-10T01:15:14.299Z,100856.86
2022-11-10T01:17:59.580Z,100858.33
2022-11-10T01:20:49.756Z,100859.03
2022-11-10T01:23:35.611Z,100858.87
2022-11-10T01:26:20.803Z,100859.00
2022-11-10T01:29:06.250Z,100858.19
2022-11-10T01:31:51.646Z,100865.64
2022-11-10T01:34:36.630Z,100862.42
2022-11-10T01:37:22.725Z,100862.42
2022-11-10T01:40:09.375Z,100861.27
2022-11-10T01:42:57.016Z,100867.98
2022-11-10T01:45:59.134Z,100861.35
2022-11-10T01:49:11.755Z,100862.23
2022-11-10T01:52:12.386Z,100865.70
2022-11-10T01:54:57.869Z,100867.31
2022-11-10T01:57:44.277Z,100868.16
2022-11-10T02:00:29.931Z,100872.91
2022-11-10T02:03:29.976Z,100873.06
2022-11-10T02:06:17.300Z,100874.86
2022-11-10T02:09:03.500Z,100872.70
2022-11-10T02:11:52.236Z,100871.66
2022-11-10T02:14:38.348Z,100875.55
2022-11-10T02:17:30.570Z,100881.64
2022-11-10T02:20:20.065Z,100882.42
2022-11-10T02:23:34.602Z,100887.20
2022-11-10T02:26:26.913Z,100887.39
2022-11-10T02:29:15.851Z,100887.91
2022-11-10T02:32:01.113Z,100890.59
2022-11-10T02:34:46.395Z,100888.13
2022-11-10T02:37:31.946Z,100893.52
2022-11-10T02:40:17.613Z,100895.98
2022-11-10T02:43:12.564Z,100894.09
2022-11-10T02:45:58.098Z,100893.60
2022-11-10T02:48:43.186Z,100897.44
2022-11-10T02:51:28.646Z,100898.95
2022-11-10T02:54:14.063Z,100905.84
2022-11-10T02:57:05.390Z,100902.63
2022-11-10T02:59:50.877Z,100907.95
2022-11-10T03:02:36.133Z,100914.48
2022-11-10T03:05:21.401Z,100916.23
2022-11-10T03:08:07.056Z,100924.15
2022-11-10T03:10:56.265Z,100926.60
2022-11-10T03:14:00.425Z,100926.86
2022-11-10T03:16:46.605Z,100923.75
2022-11-10T03:19:31.689Z,100921.98
2022-11-10T03:22:16.862Z,100927.80
2022-11-10T03:25:06.545Z,100927.08
2022-11-10T03:27:51.712Z,100929.95
2022-11-10T03:30:38.493Z,100929.83
2022-11-10T03:33:26.649Z,100932.79
2022-11-10T03:36:15.302Z,100936.96
2022-11-10T03:39:00.294Z,100941.30
2022-11-10T03:41:45.694Z,100943.87
2022-11-10T03:44:30.741Z,100949.33
2022-11-10T03:47:16.034Z,100951.42
2022-11-10T03:50:01.507Z,100954.71
2022-11-10T03:52:50.611Z,100960.77
2022-11-10T03:55:35.783Z,100955.05
2022-11-10T03:58:21.160Z,100960.48
2022-11-10T04:01:06.631Z,100967.92
2022-11-10T04:03:52.048Z,100974.21
2022-11-10T04:06:56.302Z,100976.88
2022-11-10T04:09:41.701Z,100976.44
2022-11-10T04:13:02.657Z,100984.17
2022-11-10T04:15:47.921Z,100979.92
2022-11-10T04:18:33.447Z,100988.27
2022-11-10T04:21:18.836Z,100995.66
2022-11-10T04:24:04.621Z,100996.90
2022-11-10T04:26:53.517Z,100997.66
2022-11-10T04:29:39.022Z,101001.06
2022-11-10T04:32:24.475Z,101004.29
2022-11-10T04:35:09.904Z,101003.85
2022-11-10T04:37:55.302Z,101010.64
2022-11-10T04:40:40.427Z,101013.50
2022-11-10T04:43:30.116Z,101016.77
2022-11-10T04:46:23.466Z,101020.98
2022-11-10T04:49:10.332Z,101020.88
2022-11-10T04:51:55.637Z,101023.34
2022-11-10T04:54:41.208Z,101025.58
2022-11-10T04:57:26.198Z,101025.64
2022-11-10T05:00:14.958Z,101027.31
2022-11-10T05:03:03.524Z,101033.08
2022-11-10T05:05:49.212Z,101033.60
2022-11-10T05:08:38.507Z,101036.07
2022-11-10T05:11:23.449Z,101032.84
2022-11-10T05:14:08.646Z,101040.48
2022-11-10T05:16:53.775Z,101045.07
2022-11-10T05:19:38.980Z,101050.23
2022-11-10T05:22:24.166Z,101054.48
2022-11-10T05:25:09.497Z,101057.95
2022-11-10T05:27:54.898Z,101057.96
2022-11-10T05:30:40.430Z,101058.90
2022-11-10T05:33:26.026Z,101065.59
2022-11-10T05:36:14.866Z,101075.39
2022-11-10T05:38:59.914Z,101078.69
2022-11-10T05:41:45.431Z,101080.27
2022-11-10T05:44:30.521Z,101083.83
2022-11-10T05:47:15.858Z,101093.98
2022-11-10T05:50:01.326Z,101096.91
2022-11-10T05:52:54.666Z,101099.81
2022-11-10T05:55:40.099Z,101107.58
2022-11-10T05:58:25.605Z,101111.27
2022-11-10T06:01:10.745Z,101118.98
2022-11-10T06:03:56.422Z,101124.83
2022-11-10T06:06:41.943Z,101130.23
2022-11-10T06:09:27.035Z,101133.04
2022-11-10T06:12:12.567Z,101137.08
2022-11-10T06:15:01.190Z,101144.64
2022-11-10T06:17:47.102Z,101148.23
2022-11-10T06:20:36.327Z,101149.23
2022-11-10T06:23:21.825Z,101153.90
2022-11-10T06:26:10.571Z,101156.27
2022-11-10T06:28:55.570Z,101161.58
2022-11-10T06:31:41.046Z,101165.81
2022-11-10T06:34:30.019Z,101171.88
2022-11-10T06:37:15.186Z,101177.27
2022-11-10T06:40:00.423Z,101177.86
2022-11-10T06:42:45.335Z,101178.52
2022-11-10T06:45:30.782Z,101183.04
2022-11-10T06:48:16.177Z,101191.67
2022-11-10T06:51:04.463Z,101194.55
2022-11-10T06:53:49.490Z,101203.46
2022-11-10T06:56:34.727Z,101207.94
2022-11-10T06:59:20.098Z,101207.46
2022-11-10T07:02:13.401Z,101218.30
2022-11-10T07:04:58.517Z,101225.89
2022-11-10T07:07:43.589Z,101228.31
2022-11-10T07:10:29.151Z,101233.76
2022-11-10T07:13:14.468Z,101237.95
2022-11-10T07:16:04.715Z,101243.84
2022-11-10T07:18:49.993Z,101251.20
2022-11-10T07:21:35.167Z,101260.98
2022-11-10T07:24:24.278Z,101263.63
2022-11-10T07:27:09.616Z,101265.59
2022-11-10T07:29:54.457Z,101274.32
2022-11-10T07:32:40.186Z,101272.13
2022-11-10T07:35:29.243Z,101276.23
2022-11-10T07:38:16.314Z,101281.85
2022-11-10T07:41:01.631Z,101288.10
2022-11-10T07:43:47.029Z,101292.80
2022-11-10T07:46:32.494Z,101302.03
2022-11-10T07:49:18.073Z,101305.00
2022-11-10T07:52:03.305Z,101308.19
2022-11-10T07:54:48.586Z,101318.29
2022-11-10T07:57:34.209Z,101316.92
2022-11-10T08:00:19.543Z,101322.32
2022-11-10T08:03:13.589Z,101324.04
2022-11-10T08:05:59.255Z,101328.10
2022-11-10T08:08:47.671Z,101334.77
2022-11-10T08:11:32.916Z,101337.98
2022-11-10T08:14:18.199Z,101338.95
2022-11-10T08:17:03.280Z,101345.60
2022-11-10T08:19:48.582Z,101350.14
2022-11-10T08:22:33.567Z,101359.59
2022-11-10T08:25:19.022Z,101361.23
2022-11-10T08:28:18.932Z,101363.58
2022-11-10T08:31:06.394Z,101373.38
2022-11-10T08:33:52.587Z,101376.43
2022-11-10T08:36:37.651Z,101378.54
2022-11-10T08:39:38.269Z,101384.27
2022-11-10T08:42:27.827Z,101386.36
2022-11-10T08:45:14.206Z,101384.34
2022-11-10T08:48:06.292Z,101388.71
2022-11-10T08:50:51.808Z,101392.74
2022-11-10T08:53:37.210Z,101399.23
2022-11-10T08:56:22.467Z,101399.40
2022-11-10T08:59:07.771Z,101403.18
2022-11-10T09:01:53.124Z,101411.42
2022-11-10T09:04:38.793Z,101418.35
2022-11-10T09:07:24.286Z,101423.05
2022-11-10T09:10:09.826Z,101424.46
2022-11-10T09:13:01.991Z,101431.80
2022-11-10T09:15:50.735Z,101436.02
2022-11-10T09:18:36.077Z,101442.48
2022-11-10T09:21:24.944Z,101448.33
2022-11-10T09:24:10.383Z,101454.86
2022-11-10T09:26:55.816Z,101450.64
2022-11-10T09:29:40.843Z,101462.58
2022-11-10T09:32:26.153Z,101465.91
2022-11-10T09:35:15.072Z,101468.81
2022-11-10T09:38:00.400Z,101471.04
2022-11-10T09:41:04.013Z,101476.03
2022-11-10T09:44:04.055Z,101478.61
2022-11-10T09:47:02.378Z,101483.91
2022-11-10T09:49:57.030Z,101491.59
2022-11-10T09:52:45.858Z,101494.15
2022-11-10T09:55:46.497Z,101489.66
2022-11-10T09:58:42.048Z,101485.85
2022-11-10T10:01:51.300Z,101486.45
2022-11-10T10:05:05.707Z,101489.23
2022-11-10T10:08:05.232Z,101491.20
2022-11-10T10:11:24.112Z,101494.84
2022-11-10T10:14:57.124Z,101495.13
2022-11-10T10:17:56.525Z,101501.96
2022-11-10T10:21:33.494Z,101506.59
2022-11-10T10:24:23.050Z,101511.47
2022-11-10T10:27:25.627Z,101515.88
2022-11-10T10:30:21.337Z,101519.05
2022-11-10T10:33:24.598Z,101515.50
2022-11-10T10:36:32.132Z,101512.30
2022-11-10T10:39:39.893Z,101517.32
2022-11-10T10:42:36.342Z,101521.13
2022-11-10T10:45:32.054Z,101521.48
2022-11-10T10:48:28.408Z,101526.80
2022-11-10T10:51:32.972Z,101526.77
2022-11-10T10:54:31.696Z,101530.27
2022-11-10T10:57:27.553Z,101527.02
2022-11-10T11:00:15.629Z,101523.58
2022-11-10T11:03:06.004Z,101525.69
2022-11-10T11:06:05.383Z,101529.52
2022-11-10T11:09:06.239Z,101521.65
2022-11-10T11:12:09.202Z,101515.59
2022-11-10T11:15:17.100Z,101519.08
2022-11-10T11:18:07.073Z,101520.63
2022-11-10T11:20:52.015Z,101522.98
2022-11-10T11:23:55.605Z,101528.71
2022-11-10T11:27:13.282Z,101536.35
2022-11-10T11:29:58.641Z,101539.77
2022-11-10T11:32:46.613Z,101542.64
2022-11-10T11:35:34.737Z,101544.11
2022-11-10T11:38:39.715Z,101549.01
2022-11-10T11:41:41.785Z,101544.23
2022-11-10T11:44:47.152Z,101546.44
2022-11-10T11:47:42.151Z,101544.20
2022-11-10T11:50:40.466Z,101546.67
2022-11-10T11:53:34.625Z,101547.82
2022-11-10T11:56:41.497Z,101554.50
2022-11-10T11:59:38.870Z,101561.74
2022-11-10T12:02:42.751Z,101564.42
2022-11-10T12:05:30.950Z,101565.92
2022-11-10T12:08:39.349Z,101576.88
2022-11-10T12:11:39.218Z,101582.23
2022-11-10T12:14:44.773Z,101584.03
2022-11-10T12:17:30.070Z,101582.62
2022-11-10T12:20:37.240Z,101585.39
2022-11-10T12:23:22.549Z,101578.55
2022-11-10T12:26:07.906Z,101576.59
2022-11-10T12:29:12.002Z,101581.49
2022-11-10T12:32:04.328Z,101579.56
2022-11-10T12:34:57.216Z,101586.34
2022-11-10T12:37:47.468Z,101586.14
2022-11-10T12:40:42.044Z,101590.27
2022-11-10T12:43:40.029Z,101598.39
2022-11-10T12:46:24.995Z,101608.70
2022-11-10T12:49:20.720Z,101613.30
2022-11-10T12:52:28.343Z,101618.88
2022-11-10T12:55:17.588Z,101624.21
2022-11-10T12:58:07.563Z,101627.52
2022-11-10T13:00:55.684Z,101627.30
2022-11-10T13:03:52.651Z,101625.98
2022-11-10T13:06:48.597Z,101630.66
2022-11-10T13:09:38.225Z,101632.30
2022-11-10T13:12:26.960Z,101633.48
2022-11-10T13:15:31.196Z,101637.21
2022-11-10T13:18:45.619Z,101645.19
2022-11-10T13:21:51.361Z,101642.40
2022-11-10T13:24:41.771Z,101639.67
2022-11-10T13:27:32.594Z,101641.25
2022-11-10T13:30:36.460Z,101646.86
2022-11-10T13:33:24.773Z,101655.68
2022-11-10T13:36:10.039Z,101656.88
2022-11-10T13:38:58.591Z,101654.60
2022-11-10T13:42:10.629Z,101655.75
2022-11-10T13:45:15.649Z,101657.45
2022-11-10T13:48:10.164Z,101655.96
2022-11-10T13:50:57.864Z,101661.47
2022-11-10T13:53:57.837Z,101664.58
2022-11-10T13:57:07.546Z,101665.55
2022-11-10T14:00:00.854Z,101673.16
2022-11-10T14:02:56.770Z,101675.52
2022-11-10T14:06:01.785Z,101678.61
2022-11-10T14:08:53.052Z,101686.57
2022-11-10T14:11:50.017Z,101688.89
2022-11-10T14:14:48.057Z,101692.21
2022-11-10T14:17:38.040Z,101699.08
2022-11-10T14:20:42.247Z,101701.48
2022-11-10T14:23:29.844Z,101704.81
2022-11-10T14:26:27.995Z,101708.85
2022-11-10T14:29:32.015Z,101714.05
2022-11-10T14:32:24.144Z,101715.20
2022-11-10T14:35:20.733Z,101721.91
2022-11-10T14:38:10.236Z,101723.44
2022-11-10T14:41:00.200Z,101720.28
2022-11-10T14:43:58.034Z,101718.09
2022-11-10T14:46:43.301Z,101720.51
2022-11-10T14:49:28.304Z,101722.66
2022-11-10T14:52:17.821Z,101733.69
2022-11-10T14:55:07.201Z,101742.08
2022-11-10T14:58:00.041Z,101747.73
2022-11-10T15:00:44.920Z,101752.08
2022-11-10T15:03:36.910Z,101753.49
2022-11-10T15:06:22.209Z,101759.73
2022-11-10T15:09:19.043Z,101765.19
2022-11-10T15:12:23.004Z,101773.59
2022-11-10T15:15:20.831Z,101775.77
2022-11-10T15:18:10.238Z,101778.85
2022-11-10T15:21:07.053Z,101779.78
2022-11-10T15:23:56.860Z,101780.84
2022-11-10T15:26:41.960Z,101789.17
2022-11-10T15:29:32.007Z,101796.92
2022-11-10T15:32:23.780Z,101809.00
2022-11-10T15:35:17.920Z,101825.17
2022-11-10T15:38:07.979Z,101828.48
2022-11-10T15:41:06.837Z,101828.80
2022-11-10T15:43:51.645Z,101831.41
2022-11-10T15:46:36.924Z,101835.30
2022-11-10T15:49:26.691Z,101844.57
2022-11-10T15:52:20.220Z,101850.45
2022-11-10T15:55:22.761Z,101860.16
2022-11-10T15:58:14.999Z,101857.30
2022-11-10T16:01:04.572Z,101862.89
2022-11-10T16:03:50.196Z,101859.21
2022-11-10T16:06:35.244Z,101861.56
2022-11-10T16:09:20.807Z,101859.97
2022-11-10T16:12:12.657Z,101867.46
2022-11-10T16:15:01.240Z,101873.38
2022-11-10T16:17:46.204Z,101875.16
2022-11-10T16:20:31.188Z,101876.64
2022-11-10T16:23:16.385Z,101880.35
2022-11-10T16:26:04.107Z,101887.73
2022-11-10T16:28:50.974Z,101898.50
2022-11-10T16:31:37.712Z,101903.71
2022-11-10T16:34:23.237Z,101903.52
2022-11-10T16:37:11.693Z,101905.17
2022-11-10T16:39:56.499Z,101902.19
2022-11-10T16:42:45.347Z,101902.29
2022-11-10T16:45:30.692Z,101904.14
2022-11-10T16:48:21.198Z,101908.42
2022-11-10T16:51:06.354Z,101910.83
2022-11-10T16:53:52.578Z,101909.33
2022-11-10T16:56:37.936Z,101910.71
2022-11-10T16:59:23.600Z,101906.48
2022-11-10T17:02:31.205Z,101912.63
2022-11-10T17:05:16.598Z,101921.17
2022-11-10T17:08:06.282Z,101920.80
2022-11-10T17:10:51.368Z,101925.02
2022-11-10T17:13:43.067Z,101926.56
2022-11-10T17:16:33.962Z,101925.38
2022-11-10T17:19:25.108Z,101923.39
2022-11-10T17:22:13.966Z,101926.86
2022-11-10T17:24:59.258Z,101922.98
2022-11-10T17:27:44.512Z,101921.55
2022-11-10T17:30:29.974Z,101929.09
2022-11-10T17:33:15.189Z,101932.44
2022-11-10T17:36:04.893Z,101939.11
2022-11-10T17:38:54.759Z,101942.92
2022-11-10T17:41:39.731Z,101942.54
2022-11-10T17:44:24.923Z,101944.27
2022-11-10T17:47:09.865Z,101941.89
2022-11-10T17:49:55.081Z,101945.42
2022-11-10T17:52:44.116Z,101951.31
2022-11-10T17:55:33.974Z,101954.20
2022-11-10T17:58:20.133Z,101960.17
2022-11-10T18:01:19.799Z,101961.54
2022-11-10T18:04:04.998Z,101968.60
2022-11-10T18:06:49.897Z,101974.06
2022-11-10T18:09:35.272Z,101979.13
2022-11-10T18:12:24.055Z,101982.98
2022-11-10T18:15:20.086Z,101987.19
2022-11-10T18:18:05.163Z,101986.55
2022-11-10T18:20:50.430Z,101982.85
2022-11-10T18:23:35.420Z,101982.89
2022-11-10T18:26:20.425Z,101988.02
2022-11-10T18:29:05.599Z,101992.52
2022-11-10T18:31:50.744Z,101996.38
2022-11-10T18:34:36.064Z,102005.99
2022-11-10T18:37:21.243Z,102003.44
2022-11-10T18:40:09.829Z,102004.49
2022-11-10T18:42:57.350Z,102008.11
2022-11-10T18:45:42.501Z,102007.66
2022-11-10T18:48:31.108Z,102000.80
2022-11-10T18:51:18.824Z,102000.50
2022-11-10T18:54:07.851Z,101991.69
2022-11-10T18:56:56.180Z,101992.33
2022-11-10T18:59:41.685Z,101988.55
2022-11-10T19:02:26.803Z,101992.37
2022-11-10T19:05:11.778Z,101992.58
2022-11-10T19:07:56.743Z,101993.57
2022-11-10T19:10:42.122Z,101998.71
2022-11-10T19:13:26.972Z,102000.79
2022-11-10T19:16:15.934Z,101997.04
2022-11-10T19:19:01.347Z,102001.67
2022-11-10T19:21:46.581Z,101998.86
2022-11-10T19:24:42.446Z,101998.13
2022-11-10T19:27:36.685Z,101992.95
2022-11-10T19:30:21.389Z,101995.93
2022-11-10T19:33:06.411Z,101998.85
2022-11-10T19:35:51.220Z,102003.04
2022-11-10T19:38:40.107Z,102005.43
2022-11-10T19:41:28.148Z,102010.61
2022-11-10T19:44:13.637Z,102009.09
2022-11-10T19:46:58.749Z,102012.09
2022-11-10T19:49:43.567Z,102017.28
2022-11-10T19:52:32.333Z,102023.27
2022-11-10T19:55:17.820Z,102030.37
2022-11-10T19:58:03.125Z,102021.43
2022-11-10T20:00:51.844Z,102020.05
2022-11-10T20:03:40.824Z,102029.00
2022-11-10T20:06:26.018Z,102038.16
2022-11-10T20:09:11.236Z,102043.03
2022-11-10T20:11:56.497Z,102047.75
2022-11-10T20:14:41.696Z,102050.58
2022-11-10T20:17:27.069Z,102045.11
2022-11-10T20:20:11.918Z,102042.33
2022-11-10T20:23:01.284Z,102041.21
2022-11-10T20:25:46.460Z,102043.42
2022-11-10T20:28:35.091Z,102050.16
2022-11-10T20:31:26.381Z,102053.90
2022-11-10T20:34:11.932Z,102054.98
2022-11-10T20:36:57.347Z,102050.52
2022-11-10T20:39:42.785Z,102045.14
2022-11-10T20:42:28.170Z,102036.57
2022-11-10T20:45:13.511Z,102033.27
2022-11-10T20:48:00.676Z,102032.56
2022-11-10T20:50:45.854Z,102039.55
2022-11-10T20:53:30.710Z,102042.96
2022-11-10T20:56:19.548Z,102040.77
2022-11-10T20:59:04.948Z,102044.02
2022-11-10T21:01:50.124Z,102038.24
2022-11-10T21:04:40.299Z,102039.71
2022-11-10T21:07:31.249Z,102036.96
2022-11-10T21:10:16.218Z,102040.72
2022-11-10T21:13:01.105Z,102042.95
2022-11-10T21:15:53.819Z,102036.81
2022-11-10T21:18:38.666Z,102042.23
2022-11-10T21:21:37.282Z,102042.99
2022-11-10T21:24:22.513Z,102048.55
2022-11-10T21:27:12.712Z,102050.80
2022-11-10T21:30:01.595Z,102055.55
2022-11-10T21:32:46.866Z,102057.20
2022-11-10T21:35:38.284Z,102054.96
2022-11-10T21:38:24.027Z,102062.70
2022-11-10T21:41:09.373Z,102062.85
2022-11-10T21:43:54.760Z,102067.30
2022-11-10T21:46:40.243Z,102074.24
2022-11-10T21:49:25.382Z,102077.66
2022-11-10T21:52:10.435Z,102082.55
2022-11-10T21:54:55.513Z,102085.40
2022-11-10T21:57:44.716Z,102085.98
2022-11-10T22:00:33.671Z,102086.23
2022-11-10T22:03:18.445Z,102090.27
2022-11-10T22:06:04.876Z,102094.33
2022-11-10T22:08:53.953Z,102097.55
2022-11-10T22:11:58.013Z,102100.32
2022-11-10T22:15:02.378Z,102101.27
2022-11-10T22:18:06.613Z,102106.91
2022-11-10T22:20:51.980Z,102113.98
2022-11-10T22:23:59.414Z,102118.47
2022-11-10T22:26:44.760Z,102120.50
2022-11-10T22:29:34.530Z,102121.50
2022-11-10T22:32:19.583Z,102121.68
2022-11-10T22:35:04.907Z,102123.95
2022-11-10T22:37:50.153Z,102129.86
2022-11-10T22:40:57.531Z,102129.27
2022-11-10T22:44:09.083Z,102129.66
2022-11-10T22:46:54.284Z,102130.20
2022-11-10T22:49:39.289Z,102135.44
2022-11-10T22:52:24.421Z,102136.46
2022-11-10T22:55:13.456Z,102132.91
2022-11-10T22:57:58.523Z,102128.48
2022-11-10T23:00:48.092Z,102130.35
2022-11-10T23:03:37.086Z,102135.28
2022-11-10T23:06:22.479Z,102134.58
2022-11-10T23:09:07.792Z,102132.52
2022-11-10T23:11:52.988Z,102136.77
2022-11-10T23:14:38.162Z,102135.27
2022-11-10T23:17:23.452Z,102138.30
2022-11-10T23:20:08.833Z,102138.48
2022-11-10T23:22:57.743Z,102138.73
2022-11-10T23:25:42.720Z,102135.93
2022-11-10T23:28:31.387Z,102129.59
2022-11-10T23:31:17.966Z,102126.30
2022-11-10T23:34:03.024Z,102119.50
2022-11-10T23:36:47.948Z,102122.72
2022-11-10T23:39:33.079Z,102124.20
2022-11-10T23:42:18.338Z,102130.04
2022-11-10T23:45:03.392Z,102125.17
2022-11-10T23:47:52.345Z,102125.77
2022-11-10T23:50:37.672Z,102122.64
2022-11-10T23:53:23.035Z,102128.86
2022-11-10T23:56:16.327Z,102136.39
2022-11-10T23:59:01.408Z,102141.70
